Time;durP1;ratioP1;P1;durP2;ratioP2;P2;SDS_P1;SDS_P2;PMS_P1;PMS_P2;Temp;Humidity;BMP_temperature;BMP_pressure;BME280_temperature;BME280_humidity;BME280_pressure;Samples;Min_cycle;Max_cycle;Signal;HPM_P1;HPM_P2
2022/03/05 00:01:11;;;;;;;0.00;0.00;;;;;;;6.08;67.14;98792.88;4885367;29;20103;-80
2022/03/05 00:03:36;;;;;;;0.85;0.85;;;;;;;6.05;68.09;98804.00;4885166;29;20128;-78
2022/03/05 00:06:04;;;;;;;0.10;0.10;;;;;;;6.01;68.28;98799.44;4885136;29;20060;-78
2022/03/05 00:08:30;;;;;;;0.00;0.00;;;;;;;5.97;67.67;98798.28;4889620;29;20060;-77
2022/03/05 00:10:56;;;;;;;0.00;0.00;;;;;;;5.90;67.53;98806.47;4911106;29;20064;-78
2022/03/05 00:13:21;;;;;;;0.08;0.08;;;;;;;5.83;67.92;98800.56;4911997;29;20088;-77
2022/03/05 00:15:46;;;;;;;0.00;0.00;;;;;;;5.70;68.02;98793.78;4881196;29;20040;-78
2022/03/05 00:18:12;;;;;;;0.00;0.00;;;;;;;5.57;68.13;98795.78;4892663;29;20039;-78
2022/03/05 00:20:38;;;;;;;0.00;0.00;;;;;;;5.49;68.22;98806.84;4911880;29;20044;-78
2022/03/05 00:23:03;;;;;;;0.10;0.10;;;;;;;5.37;68.88;98800.84;4899402;29;20172;-78
2022/03/05 00:25:29;;;;;;;0.00;0.00;;;;;;;5.31;68.97;98801.84;4882540;29;20033;-78
2022/03/05 00:27:55;;;;;;;0.00;0.00;;;;;;;5.28;69.27;98806.63;4889776;29;20036;-78
2022/03/05 00:31:03;;;;;;;0.00;0.00;;;;;;;5.27;69.38;98812.97;4885584;29;20032;-80
2022/03/05 00:33:33;;;;;;;0.00;0.00;;;;;;;5.25;69.76;98817.69;4897730;29;20100;-80
2022/03/05 00:36:08;;;;;;;0.00;0.00;;;;;;;5.18;69.63;98806.47;4869784;29;20044;-78
2022/03/05 00:39:16;;;;;;;0.00;0.00;;;;;;;5.21;69.91;98807.84;4888313;29;20034;-79
2022/03/05 00:41:42;;;;;;;0.00;0.00;;;;;;;5.18;69.91;98803.81;4888122;29;20060;-79
2022/03/05 00:44:07;;;;;;;0.00;0.00;;;;;;;5.23;69.71;98811.84;4898695;29;20032;-78
2022/03/05 00:46:33;;;;;;;0.00;0.00;;;;;;;5.27;69.65;98805.00;4899948;29;20068;-79
2022/03/05 00:48:58;;;;;;;0.00;0.00;;;;;;;5.31;69.70;98801.84;4898164;29;20032;-78
2022/03/05 00:51:24;;;;;;;0.10;0.10;;;;;;;5.37;69.83;98803.50;4896536;29;20031;-78
2022/03/05 00:53:50;;;;;;;0.00;0.00;;;;;;;5.39;69.82;98799.56;4886237;29;20024;-78
2022/03/05 00:56:15;;;;;;;0.00;0.00;;;;;;;5.46;69.00;98802.03;4888780;29;20056;-78
2022/03/05 00:58:40;;;;;;;0.00;0.00;;;;;;;5.46;69.16;98794.09;4899683;29;20519;-78
2022/03/05 01:01:06;;;;;;;0.00;0.00;;;;;;;5.51;69.24;98798.66;4880705;29;20033;-78
2022/03/05 01:03:31;;;;;;;0.00;0.00;;;;;;;5.49;69.15;98793.56;4913768;29;20042;-78
2022/03/05 01:05:57;;;;;;;0.00;0.00;;;;;;;5.46;69.29;98794.09;4885087;29;20068;-78
2022/03/05 01:08:23;;;;;;;0.00;0.00;;;;;;;5.49;69.13;98793.56;4886216;29;20056;-78
2022/03/05 01:10:48;;;;;;;0.80;0.80;;;;;;;5.50;69.41;98789.88;4891841;29;20044;-78
2022/03/05 01:13:14;;;;;;;0.00;0.00;;;;;;;5.45;69.20;98790.63;4884733;29;20074;-78
2022/03/05 01:15:40;;;;;;;0.00;0.00;;;;;;;5.43;69.45;98781.31;4880638;29;20033;-78
2022/03/05 01:18:06;;;;;;;0.00;0.00;;;;;;;5.43;69.56;98784.78;4886947;29;20048;-78
2022/03/05 01:20:31;;;;;;;0.10;0.10;;;;;;;5.42;69.67;98795.59;4879795;29;20037;-78
2022/03/05 01:22:57;;;;;;;0.00;0.00;;;;;;;5.39;70.07;98798.78;4879490;29;20036;-78
2022/03/05 01:25:22;;;;;;;0.00;0.00;;;;;;;5.43;69.97;98802.53;4881015;29;20032;-78
2022/03/05 01:27:48;;;;;;;0.10;0.10;;;;;;;5.47;69.75;98808.94;4894538;29;20088;-78
2022/03/05 01:30:13;;;;;;;0.00;0.00;;;;;;;5.48;69.40;98797.28;4896378;29;20051;-77
2022/03/05 01:32:39;;;;;;;0.55;0.55;;;;;;;5.54;69.61;98800.78;4898648;29;20047;-77
2022/03/05 01:35:05;;;;;;;0.10;0.10;;;;;;;5.59;69.60;98816.75;4891758;29;20033;-78
2022/03/05 01:37:31;;;;;;;0.30;0.30;;;;;;;5.64;69.34;98802.75;4888214;29;20032;-78
2022/03/05 01:39:57;;;;;;;0.00;0.00;;;;;;;5.63;69.22;98809.91;4880585;29;20037;-79
2022/03/05 01:42:24;;;;;;;0.00;0.00;;;;;;;5.64;69.48;98808.88;4881836;29;20507;-78
2022/03/05 01:44:50;;;;;;;0.00;0.00;;;;;;;5.64;69.00;98811.53;4896257;29;20044;-78
2022/03/05 01:47:16;;;;;;;0.00;0.00;;;;;;;5.65;69.74;98807.00;4891734;29;20456;-78
2022/03/05 01:49:42;;;;;;;0.00;0.00;;;;;;;5.65;69.12;98799.06;4902950;29;20028;-78
2022/03/05 01:52:07;;;;;;;0.00;0.00;;;;;;;5.63;69.20;98809.91;4920236;29;20040;-78
2022/03/05 01:54:33;;;;;;;0.00;0.00;;;;;;;5.66;68.96;98804.09;4902624;29;20036;-78
2022/03/05 01:57:00;;;;;;;0.00;0.00;;;;;;;5.65;69.01;98799.88;4891166;29;20047;-79
2022/03/05 01:59:26;;;;;;;0.00;0.00;;;;;;;5.66;69.29;98800.66;4884467;29;20063;-78
2022/03/05 02:01:55;;;;;;;0.00;0.00;;;;;;;5.65;69.15;98805.19;4886721;29;20041;-81
2022/03/05 02:04:21;;;;;;;0.00;0.00;;;;;;;5.64;68.95;98798.25;4884185;29;20047;-79
2022/03/05 02:06:47;;;;;;;0.00;0.00;;;;;;;5.64;68.89;98798.25;4899283;29;20036;-78
2022/03/05 02:09:12;;;;;;;0.10;0.10;;;;;;;5.61;68.84;98806.72;4883836;29;20504;-78
2022/03/05 02:11:38;;;;;;;0.00;0.00;;;;;;;5.58;69.28;98801.91;4888256;29;20065;-78
2022/03/05 02:14:04;;;;;;;0.00;0.00;;;;;;;5.54;69.29;98801.59;4901462;29;20040;-76
2022/03/05 02:16:29;;;;;;;0.10;0.10;;;;;;;5.48;69.24;98796.47;4899984;29;20399;-77
2022/03/05 02:18:55;;;;;;;0.15;0.15;;;;;;;5.52;68.92;98806.34;4907396;29;20032;-78
2022/03/05 02:21:23;;;;;;;0.05;0.05;;;;;;;5.51;68.88;98807.41;4895170;29;20040;-77
2022/03/05 02:23:49;;;;;;;0.00;0.00;;;;;;;5.51;69.03;98803.94;4919127;29;20040;-77
2022/03/05 02:26:14;;;;;;;0.00;0.00;;;;;;;5.52;68.81;98803.69;4918272;29;20527;-77
2022/03/05 02:28:40;;;;;;;0.00;0.00;;;;;;;5.53;69.12;98804.47;4899535;29;21740;-77
2022/03/05 02:31:06;;;;;;;0.05;0.05;;;;;;;5.54;68.72;98806.91;4884200;29;20043;-77
2022/03/05 02:33:32;;;;;;;0.00;0.00;;;;;;;5.55;69.06;98811.13;4900162;29;20112;-78
2022/03/05 02:35:57;;;;;;;0.00;0.00;;;;;;;5.46;68.62;98807.34;4905542;29;20184;-78
2022/03/05 02:38:24;;;;;;;0.30;0.30;;;;;;;5.43;69.11;98811.28;4883494;29;20638;-78
2022/03/05 02:40:51;;;;;;;0.00;0.00;;;;;;;5.43;69.20;98806.00;4883389;29;20035;-78
2022/03/05 02:43:17;;;;;;;0.00;0.00;;;;;;;5.44;69.47;98812.91;4883044;29;20049;-78
2022/03/05 02:45:43;;;;;;;0.00;0.00;;;;;;;5.49;69.05;98819.31;4883624;29;20060;-79
2022/03/05 02:48:12;;;;;;;0.00;0.00;;;;;;;5.45;69.40;98816.34;4882721;29;20032;-78
2022/03/05 02:50:38;;;;;;;0.00;0.00;;;;;;;5.42;69.22;98817.66;4883212;29;20033;-78
2022/03/05 02:53:04;;;;;;;0.00;0.00;;;;;;;5.43;69.24;98821.91;4901008;29;20036;-78
2022/03/05 02:55:31;;;;;;;0.00;0.00;;;;;;;5.41;69.25;98813.38;4889008;29;20046;-78
2022/03/05 02:57:56;;;;;;;0.20;0.20;;;;;;;5.42;69.35;98814.16;4902474;29;20043;-79
2022/03/05 03:00:22;;;;;;;0.10;0.10;;;;;;;5.40;69.53;98821.59;4886498;29;20108;-79
2022/03/05 03:02:49;;;;;;;0.00;0.00;;;;;;;5.33;69.28;98824.41;4884210;29;20477;-79
2022/03/05 03:05:16;;;;;;;0.00;0.00;;;;;;;5.27;69.60;98822.75;4881631;29;20075;-78
2022/03/05 03:07:42;;;;;;;0.57;0.57;;;;;;;5.25;69.65;98827.53;4881655;29;20041;-78
2022/03/05 03:10:10;;;;;;;0.00;0.00;;;;;;;5.23;69.84;98827.75;4886987;29;20032;-78
2022/03/05 03:12:37;;;;;;;0.10;0.10;;;;;;;5.21;69.72;98827.22;4901334;29;20119;-78
2022/03/05 03:15:03;;;;;;;0.00;0.00;;;;;;;5.19;70.00;98828.47;4898288;29;20040;-77
2022/03/05 03:17:29;;;;;;;0.00;0.00;;;;;;;5.17;69.68;98835.91;4881354;29;20036;-78
2022/03/05 03:19:55;;;;;;;0.00;0.00;;;;;;;5.15;70.21;98837.97;4887401;29;20036;-77
2022/03/05 03:22:20;;;;;;;0.00;0.00;;;;;;;5.16;69.91;98845.69;4897910;29;20100;-76
2022/03/05 03:24:46;;;;;;;0.00;0.00;;;;;;;5.15;69.96;98836.16;4913619;29;20119;-76
2022/03/05 03:27:12;;;;;;;0.00;0.00;;;;;;;5.09;69.78;98845.06;4916634;29;20500;-77
2022/03/05 03:29:37;;;;;;;0.00;0.00;;;;;;;5.11;69.87;98845.63;4890485;29;20033;-78
2022/03/05 03:32:04;;;;;;;0.00;0.00;;;;;;;5.08;69.81;98846.13;4893822;29;20067;-78
2022/03/05 03:34:29;;;;;;;0.00;0.00;;;;;;;5.02;69.94;98834.63;4900162;29;20036;-78
2022/03/05 03:36:55;;;;;;;0.00;0.00;;;;;;;4.97;70.20;98837.22;4885836;29;20493;-78
2022/03/05 03:39:21;;;;;;;0.00;0.00;;;;;;;4.91;70.18;98846.94;4885312;29;20477;-78
2022/03/05 03:41:46;;;;;;;0.00;0.00;;;;;;;4.86;70.41;98836.28;4892380;29;20036;-78
2022/03/05 03:44:12;;;;;;;0.00;0.00;;;;;;;4.86;70.14;98840.75;4890234;29;20056;-78
2022/03/05 03:46:37;;;;;;;0.00;0.00;;;;;;;4.79;70.89;98833.78;4881525;29;20032;-77
2022/03/05 03:49:03;;;;;;;0.00;0.00;;;;;;;4.83;70.74;98841.25;4881615;29;20643;-79
2022/03/05 03:51:28;;;;;;;0.00;0.00;;;;;;;4.84;70.53;98833.06;4885053;29;20047;-79
2022/03/05 03:53:54;;;;;;;0.00;0.00;;;;;;;4.81;70.63;98842.28;4899924;29;20036;-78
2022/03/05 03:56:19;;;;;;;0.00;0.00;;;;;;;4.85;71.12;98842.63;4898447;29;20412;-78
2022/03/05 03:58:45;;;;;;;0.00;0.00;;;;;;;4.91;70.85;98832.91;4899054;29;20113;-78
2022/03/05 04:01:35;;;;;;;0.00;0.00;;;;;;;4.91;71.04;98844.28;4889661;29;20415;-81
2022/03/05 04:10:46;;;;;;;0.00;0.00;;;;;;;4.95;70.92;98853.34;4905534;29;20059;-81
2022/03/05 04:13:12;;;;;;;0.13;0.13;;;;;;;4.94;70.70;98848.31;4896861;29;20496;-77
2022/03/05 04:15:38;;;;;;;0.00;0.00;;;;;;;4.99;70.56;98844.94;4898864;29;20028;-77
2022/03/05 04:18:04;;;;;;;0.00;0.00;;;;;;;5.02;70.50;98852.41;4910065;29;20040;-77
2022/03/05 04:20:30;;;;;;;0.00;0.00;;;;;;;5.06;70.62;98853.50;4902875;29;20024;-77
2022/03/05 04:22:55;;;;;;;0.00;0.00;;;;;;;5.07;70.26;98852.47;4896910;29;20054;-77
2022/03/05 04:25:21;;;;;;;0.00;0.00;;;;;;;5.00;70.30;98854.47;4896998;29;20045;-77
2022/03/05 04:27:46;;;;;;;0.00;0.00;;;;;;;4.98;70.65;98865.34;4907907;29;20520;-77
2022/03/05 04:30:12;;;;;;;0.00;0.00;;;;;;;5.02;70.41;98863.78;4913268;29;20039;-78
2022/03/05 04:32:38;;;;;;;0.00;0.00;;;;;;;5.05;70.58;98859.84;4899108;29;20511;-78
2022/03/05 04:35:05;;;;;;;0.00;0.00;;;;;;;5.06;70.64;98864.09;4898159;29;20028;-77
2022/03/05 04:37:31;;;;;;;0.00;0.00;;;;;;;5.05;71.12;98865.16;4889688;29;20028;-77
2022/03/05 04:39:56;;;;;;;0.00;0.00;;;;;;;5.05;71.24;98865.16;4893518;29;20055;-78
2022/03/05 04:42:22;;;;;;;0.00;0.00;;;;;;;5.05;71.32;98873.91;4911003;29;20660;-78
2022/03/05 04:44:47;;;;;;;0.35;0.35;;;;;;;5.06;70.94;98872.84;4897607;29;20036;-78
2022/03/05 04:47:13;;;;;;;0.00;0.00;;;;;;;5.07;71.16;98866.50;4897583;29;20059;-78
2022/03/05 04:49:38;;;;;;;0.00;0.00;;;;;;;5.07;71.23;98876.31;4891201;29;20035;-78
2022/03/05 04:52:04;;;;;;;0.00;0.00;;;;;;;5.09;70.68;98875.03;4897066;29;20040;-77
2022/03/05 04:54:30;;;;;;;0.00;0.00;;;;;;;5.11;71.08;98875.59;4909157;29;20127;-78
2022/03/05 04:56:57;;;;;;;0.00;0.00;;;;;;;5.13;70.51;98862.09;4891142;29;20036;-78
2022/03/05 04:59:22;;;;;;;0.00;0.00;;;;;;;5.08;70.29;98857.50;4902468;29;20051;-79
2022/03/05 05:01:48;;;;;;;0.00;0.00;;;;;;;5.03;69.87;98864.59;4900973;29;20170;-79
2022/03/05 05:04:13;;;;;;;0.30;0.30;;;;;;;4.95;70.17;98869.25;4879677;29;20032;-79
2022/03/05 05:06:39;;;;;;;0.00;0.00;;;;;;;4.85;70.42;98866.47;4897392;29;20036;-78
2022/03/05 05:09:04;;;;;;;0.47;0.47;;;;;;;4.72;70.13;98880.84;4898412;29;20043;-78
2022/03/05 05:11:30;;;;;;;0.00;0.00;;;;;;;4.65;70.47;98878.34;4887246;29;20071;-77
2022/03/05 05:13:56;;;;;;;0.20;0.20;;;;;;;4.64;70.27;98895.28;4886518;29;20028;-77
2022/03/05 05:16:21;;;;;;;0.00;0.00;;;;;;;4.66;70.69;98889.75;4917175;29;20032;-78
2022/03/05 05:21:31;;;;;;;0.00;0.00;;;;;;;4.75;70.89;98903.41;4902564;29;20039;-78
2022/03/05 05:31:10;;;;;;;0.00;0.00;;;;;;;4.83;70.61;98918.09;4858688;29;20060;-81
2022/03/05 05:33:36;;;;;;;0.00;0.00;;;;;;;4.85;70.32;98916.03;4894035;29;20028;-79
2022/03/05 05:36:17;;;;;;;0.00;0.00;;;;;;;4.83;69.82;98918.88;4899906;29;20055;-81
2022/03/05 05:38:42;;;;;;;0.00;0.00;;;;;;;4.87;69.73;98920.03;4888589;29;20044;-78
2022/03/05 05:41:08;;;;;;;0.00;0.00;;;;;;;4.89;69.74;98927.72;4915622;29;20036;-78
2022/03/05 05:43:34;;;;;;;0.00;0.00;;;;;;;4.92;69.93;98928.06;4900104;29;20040;-77
2022/03/05 05:46:00;;;;;;;0.05;0.05;;;;;;;4.95;69.77;98929.41;4900836;29;20555;-77
2022/03/05 05:48:25;;;;;;;0.00;0.00;;;;;;;5.02;69.61;98929.25;4907354;29;20040;-77
2022/03/05 05:50:51;;;;;;;0.00;0.00;;;;;;;5.13;70.13;98936.31;4920064;29;20040;-77
2022/03/05 05:53:16;;;;;;;0.05;0.05;;;;;;;5.16;70.21;98929.72;4902298;29;20040;-79
2022/03/05 05:55:42;;;;;;;0.00;0.00;;;;;;;5.19;70.38;98939.81;4892720;29;20123;-78
2022/03/05 05:58:48;;;;;;;0.00;0.00;;;;;;;5.23;70.89;98933.78;4893470;29;20035;-80
2022/03/05 06:01:15;;;;;;;0.00;0.00;;;;;;;5.21;71.08;98935.91;4905473;29;20060;-78
2022/03/05 06:03:41;;;;;;;0.00;0.00;;;;;;;5.24;71.09;98931.97;4883057;29;20431;-78
2022/03/05 06:06:06;;;;;;;0.00;0.00;;;;;;;5.27;71.48;98942.06;4882057;29;20040;-78
2022/03/05 06:08:32;;;;;;;0.10;0.10;;;;;;;5.32;71.14;98939.50;4884132;29;20059;-78
2022/03/05 06:10:57;;;;;;;0.00;0.00;;;;;;;5.36;71.32;98934.50;4898238;29;20394;-78
2022/03/05 06:13:23;;;;;;;0.00;0.00;;;;;;;5.41;71.41;98947.84;4881445;29;20040;-79
2022/03/05 06:15:50;;;;;;;0.00;0.00;;;;;;;5.42;71.51;98930.88;4883329;29;20549;-79
2022/03/05 06:18:15;;;;;;;0.00;0.00;;;;;;;5.42;71.96;98937.00;4881302;29;20039;-79
2022/03/05 06:20:41;;;;;;;0.00;0.00;;;;;;;5.44;71.52;98942.88;4882437;29;20115;-78
2022/03/05 06:23:06;;;;;;;0.00;0.00;;;;;;;5.47;72.10;98936.25;4880979;29;20128;-79
2022/03/05 06:25:32;;;;;;;0.00;0.00;;;;;;;5.49;72.04;98944.75;4907736;29;20036;-76
2022/03/05 06:27:57;;;;;;;0.00;0.00;;;;;;;5.50;72.28;98943.72;4884522;29;20128;-76
2022/03/05 06:30:23;;;;;;;0.00;0.00;;;;;;;5.56;72.46;98944.59;4890410;29;20062;-78
2022/03/05 06:32:49;;;;;;;0.00;0.00;;;;;;;5.59;73.11;98936.94;4894049;29;20047;-78
2022/03/05 06:35:14;;;;;;;0.00;0.00;;;;;;;5.63;72.54;98945.22;4887301;29;20028;-78
2022/03/05 06:37:40;;;;;;;0.00;0.00;;;;;;;5.59;72.97;98946.75;4899153;29;20047;-79
2022/03/05 06:40:10;;;;;;;0.00;0.00;;;;;;;5.65;73.18;98955.59;4899816;29;20159;-80
2022/03/05 06:42:36;;;;;;;0.10;0.10;;;;;;;5.64;73.32;98952.13;4901089;29;20051;-79
2022/03/05 06:45:02;;;;;;;0.00;0.00;;;;;;;5.71;73.08;98963.38;4900906;29;20123;-81
2022/03/05 06:47:27;;;;;;;0.00;0.00;;;;;;;5.79;73.04;98964.00;4900959;29;20123;-80
2022/03/05 06:49:53;;;;;;;0.00;0.00;;;;;;;5.85;73.46;98963.81;4901722;29;20040;-79
2022/03/05 06:52:19;;;;;;;1.95;1.85;;;;;;;5.97;73.85;98971.66;4898124;29;20047;-78
2022/03/05 06:54:44;;;;;;;0.00;0.00;;;;;;;6.08;73.74;98962.78;4899638;29;20095;-78
2022/03/05 06:57:10;;;;;;;0.00;0.00;;;;;;;6.24;73.56;98982.34;4900033;29;20037;-78
2022/03/05 06:59:35;;;;;;;0.20;0.20;;;;;;;6.35;72.71;98975.28;4899656;29;20035;-78
2022/03/05 07:02:00;;;;;;;0.20;0.20;;;;;;;6.38;72.79;98982.78;4892720;29;20035;-78
2022/03/05 07:04:26;;;;;;;0.15;0.15;;;;;;;6.52;72.78;98982.38;4902019;29;20028;-79
2022/03/05 07:06:51;;;;;;;0.43;0.43;;;;;;;6.53;71.72;98982.13;4898952;29;20091;-79
2022/03/05 07:09:17;;;;;;;0.38;0.38;;;;;;;6.62;71.26;98979.81;4900778;29;20034;-79
2022/03/05 07:11:42;;;;;;;0.20;0.20;;;;;;;6.69;71.28;98985.72;4898624;29;20087;-78
2022/03/05 07:14:08;;;;;;;2.67;1.65;;;;;;;6.81;71.06;98987.41;4890403;29;20036;-78
2022/03/05 07:16:33;;;;;;;0.00;0.00;;;;;;;6.89;70.64;98979.78;4899729;29;20043;-77
2022/03/05 07:18:59;;;;;;;1.75;1.17;;;;;;;7.02;70.84;98983.88;4891757;29;20481;-76
2022/03/05 07:21:24;;;;;;;0.00;0.00;;;;;;;7.14;70.98;98980.22;4907619;29;20054;-76
2022/03/05 07:23:50;;;;;;;0.00;0.00;;;;;;;7.29;70.08;98993.66;4911584;29;20032;-76
2022/03/05 07:26:17;;;;;;;0.00;0.00;;;;;;;7.39;70.01;98990.25;4902274;29;20484;-77
2022/03/05 07:28:45;;;;;;;0.00;0.00;;;;;;;7.49;69.30;98998.28;4881289;29;20032;-78
2022/03/05 07:31:11;;;;;;;0.10;0.10;;;;;;;7.65;69.11;99001.06;4878373;29;20115;-78
2022/03/05 07:33:36;;;;;;;0.40;0.40;;;;;;;7.64;68.49;98999.44;4888566;29;20084;-78
2022/03/05 07:36:04;;;;;;;0.00;0.00;;;;;;;7.67;68.31;98997.06;4889479;29;20035;-80
2022/03/05 07:38:30;;;;;;;0.80;0.80;;;;;;;7.69;68.38;98994.97;4898536;29;20028;-79
2022/03/05 07:40:56;;;;;;;0.00;0.00;;;;;;;7.73;68.47;98992.59;4893418;29;20035;-80
2022/03/05 07:43:22;;;;;;;0.00;0.00;;;;;;;7.81;68.22;98997.44;4892558;29;20032;-78
2022/03/05 07:45:47;;;;;;;0.00;0.00;;;;;;;7.84;67.20;98996.91;4900482;29;20103;-78
2022/03/05 07:48:22;;;;;;;0.00;0.00;;;;;;;7.84;67.51;99001.44;4895738;29;20127;-81
2022/03/05 07:50:49;;;;;;;0.00;0.00;;;;;;;7.86;67.64;99002.00;4897196;29;20028;-79
2022/03/05 07:53:15;;;;;;;0.20;0.20;;;;;;;7.87;67.44;98998.25;4888354;29;20032;-78
2022/03/05 07:55:40;;;;;;;0.00;0.00;;;;;;;7.83;67.69;98997.16;4898135;29;20031;-78
2022/03/05 07:58:07;;;;;;;0.70;0.52;;;;;;;7.87;67.80;98992.13;4892919;29;20404;-79
2022/03/05 08:00:32;;;;;;;1.77;0.80;;;;;;;7.92;67.55;98997.47;4893912;29;20036;-79
2022/03/05 08:02:58;;;;;;;0.32;0.32;;;;;;;7.80;68.31;98989.69;4896047;29;20535;-80
2022/03/05 08:05:24;;;;;;;0.52;0.52;;;;;;;7.77;67.32;98987.56;4899085;29;20036;-79
2022/03/05 08:07:49;;;;;;;0.05;0.05;;;;;;;7.62;67.71;98980.28;4898524;29;20071;-78
2022/03/05 08:10:15;;;;;;;0.98;0.98;;;;;;;7.51;67.23;98976.78;4880922;29;20052;-78
2022/03/05 08:12:42;;;;;;;0.20;0.20;;;;;;;7.46;68.50;98984.72;4877292;29;20032;-78
2022/03/05 08:15:08;;;;;;;0.10;0.10;;;;;;;7.34;68.24;98987.56;4846238;29;20128;-77
2022/03/05 08:17:34;;;;;;;0.22;0.22;;;;;;;7.27;67.84;98989.66;4877060;29;20032;-77
2022/03/05 08:19:59;;;;;;;0.22;0.22;;;;;;;7.17;68.66;98988.50;4872983;29;20036;-77
2022/03/05 08:22:25;;;;;;;0.00;0.00;;;;;;;7.15;69.63;98992.47;4877288;29;20420;-77
2022/03/05 08:24:51;;;;;;;0.10;0.10;;;;;;;7.11;70.77;98997.50;4877702;29;20089;-77
2022/03/05 08:27:17;;;;;;;0.68;0.68;;;;;;;7.13;69.82;98999.91;4877267;29;20033;-79
2022/03/05 08:29:42;;;;;;;0.10;0.10;;;;;;;7.05;69.58;98996.69;4893680;29;20036;-80
2022/03/05 08:32:08;;;;;;;0.20;0.20;;;;;;;7.02;69.67;98997.19;4876298;29;20534;-77
2022/03/05 08:34:34;;;;;;;0.22;0.22;;;;;;;7.05;70.43;99004.66;4877268;29;20469;-78
2022/03/05 08:36:59;;;;;;;0.43;0.43;;;;;;;7.07;70.66;98995.59;4878054;29;20044;-78
2022/03/05 08:39:25;;;;;;;0.08;0.08;;;;;;;7.07;69.99;98991.09;4864075;29;20421;-77
2022/03/05 08:41:51;;;;;;;0.45;0.45;;;;;;;7.15;70.89;98998.63;4875549;29;20033;-80
2022/03/05 08:44:16;;;;;;;1.33;1.33;;;;;;;7.22;69.97;98993.06;4873653;29;20033;-77
2022/03/05 08:46:42;;;;;;;0.38;0.38;;;;;;;7.32;70.88;98984.34;4877076;29;20108;-75
2022/03/05 08:49:07;;;;;;;0.20;0.20;;;;;;;7.58;70.56;98984.50;4874715;29;20553;-79
2022/03/05 08:52:14;;;;;;;1.17;1.17;;;;;;;7.65;68.86;98988.56;4889787;29;20057;-82
2022/03/05 08:55:18;;;;;;;0.77;0.77;;;;;;;7.71;68.53;98993.91;4890163;29;20052;-80
2022/03/05 09:05:16;;;;;;;0.00;0.00;;;;;;;7.83;67.54;98991.84;5007841;23;20049;-79
2022/03/05 09:24:41;;;;;;;0.10;0.10;;;;;;;8.29;67.03;99008.00;4894448;29;20173;-81
2022/03/05 09:27:09;;;;;;;0.85;0.85;;;;;;;8.38;66.99;99015.50;4885792;29;20037;-83
2022/03/05 09:29:58;;;;;;;0.57;0.57;;;;;;;8.39;67.29;99017.91;4872732;29;20029;-85
2022/03/05 09:36:55;;;;;;;2.80;2.60;;;;;;;8.41;66.20;99018.44;4890131;29;20056;-81
2022/03/05 09:43:37;;;;;;;0.63;0.63;;;;;;;8.52;66.24;99008.66;4900279;29;20101;-85
2022/03/05 09:50:21;;;;;;;0.17;0.17;;;;;;;8.52;65.75;99003.31;4896027;29;20048;-87
2022/03/05 09:53:38;;;;;;;1.85;0.90;;;;;;;8.44;64.89;98991.25;4895843;29;20037;-83
2022/03/05 09:56:34;;;;;;;1.30;1.30;;;;;;;8.52;66.23;98999.84;4860322;29;20033;-85
2022/03/05 09:59:00;;;;;;;1.25;1.17;;;;;;;8.58;65.91;99004.13;4866378;29;20041;-77
2022/03/05 10:01:34;;;;;;;0.98;0.98;;;;;;;8.60;66.12;99000.13;4865466;29;20589;-82
2022/03/05 10:04:01;;;;;;;0.22;0.22;;;;;;;8.60;66.52;98994.78;4881650;29;20037;-77
2022/03/05 10:06:28;;;;;;;0.00;0.00;;;;;;;8.63;66.57;99002.28;4897592;29;20543;-76
2022/03/05 10:08:57;;;;;;;0.10;0.10;;;;;;;8.70;65.72;99006.53;4899208;29;20572;-76
2022/03/05 10:11:25;;;;;;;0.90;0.90;;;;;;;8.70;66.21;99009.22;4898384;29;20029;-78
2022/03/05 10:13:50;;;;;;;0.95;0.95;;;;;;;8.79;66.47;98995.09;4898396;29;20398;-77
2022/03/05 10:16:32;;;;;;;0.60;0.60;;;;;;;8.82;65.62;98991.09;4913016;29;20043;-77
2022/03/05 10:19:21;;;;;;;0.80;0.80;;;;;;;8.84;64.83;98988.16;4903739;29;20032;-79
2022/03/05 10:22:04;;;;;;;0.63;0.63;;;;;;;8.95;65.01;98989.78;4900937;29;20558;-82
2022/03/05 10:24:36;;;;;;;0.98;0.98;;;;;;;9.00;64.71;98988.97;4895360;29;20028;-80
2022/03/05 10:27:04;;;;;;;0.93;0.93;;;;;;;8.92;63.73;98985.78;4878952;29;20493;-80
2022/03/05 10:29:36;;;;;;;0.20;0.20;;;;;;;8.95;63.64;98993.22;4911564;29;20036;-79
2022/03/05 10:32:06;;;;;;;0.43;0.43;;;;;;;8.96;63.19;98986.84;4882742;29;20032;-78
2022/03/05 10:34:51;;;;;;;0.38;0.38;;;;;;;8.96;63.42;98986.84;4882380;29;20517;-79
2022/03/05 10:37:18;;;;;;;0.10;0.10;;;;;;;9.01;63.83;98983.38;4881367;29;20033;-77
2022/03/05 10:39:43;;;;;;;1.02;1.02;;;;;;;9.15;63.54;98980.16;4881678;29;20047;-77
2022/03/05 10:42:20;;;;;;;1.17;1.17;;;;;;;9.34;63.53;98986.56;4881265;29;20485;-76
2022/03/05 10:45:07;;;;;;;0.50;0.50;;;;;;;9.40;62.64;98988.16;4881809;29;20064;-76
2022/03/05 10:47:41;;;;;;;2.70;2.50;;;;;;;9.55;62.60;98983.84;4898398;29;20025;-78
2022/03/05 10:50:28;;;;;;;1.23;1.23;;;;;;;9.60;59.90;98975.81;4897891;29;20043;-77
2022/03/05 10:53:00;;;;;;;0.22;0.22;;;;;;;9.58;59.99;98969.94;4898375;29;20063;-77
2022/03/05 10:55:28;;;;;;;0.35;0.35;;;;;;;9.61;58.52;98977.44;4881462;29;20043;-79
2022/03/05 10:57:58;;;;;;;0.45;0.45;;;;;;;9.69;58.92;98976.88;4881464;29;20036;-78
2022/03/05 11:00:23;;;;;;;0.20;0.20;;;;;;;9.87;59.33;98972.00;4898556;29;20037;-78
2022/03/05 11:02:52;;;;;;;0.70;0.70;;;;;;;9.92;59.41;98974.66;4881238;29;20397;-78
2022/03/05 11:05:19;;;;;;;0.10;0.10;;;;;;;9.98;60.40;98968.22;4880876;29;20443;-78
2022/03/05 11:07:47;;;;;;;0.65;0.65;;;;;;;10.09;58.06;98974.31;4881178;29;20035;-77
2022/03/05 11:10:13;;;;;;;0.20;0.20;;;;;;;9.97;57.45;98961.25;4898151;29;20068;-77
2022/03/05 11:12:41;;;;;;;0.22;0.22;;;;;;;9.91;57.04;98967.69;4881320;29;20123;-76
2022/03/05 11:15:10;;;;;;;0.40;0.40;;;;;;;9.84;57.28;98967.19;4897667;29;20033;-76
2022/03/05 11:17:36;;;;;;;0.50;0.50;;;;;;;9.81;57.79;98965.09;4881183;29;20028;-77
2022/03/05 11:20:03;;;;;;;1.90;0.40;;;;;;;9.70;58.21;98954.41;4880855;29;20033;-78
2022/03/05 11:22:29;;;;;;;1.67;1.58;;;;;;;9.66;60.12;98955.25;4880963;29;20029;-77
2022/03/05 11:24:56;;;;;;;0.28;0.28;;;;;;;9.77;60.22;98952.25;4898150;29;20409;-78
2022/03/05 11:27:22;;;;;;;0.00;0.00;;;;;;;9.97;58.78;98944.44;4880561;29;20036;-78
2022/03/05 11:30:04;;;;;;;0.57;0.57;;;;;;;10.02;58.29;98942.56;4897647;29;20037;-78
2022/03/05 11:32:39;;;;;;;1.80;0.95;;;;;;;10.05;57.70;98947.34;4897562;29;20025;-78
2022/03/05 11:35:25;;;;;;;0.10;0.10;;;;;;;10.03;57.31;98952.19;4880344;29;20055;-78
2022/03/05 11:37:52;;;;;;;0.73;0.73;;;;;;;10.06;57.19;98945.50;4897874;29;20036;-77
2022/03/05 11:40:37;;;;;;;0.90;0.90;;;;;;;10.10;57.11;98943.84;4897568;29;20054;-78
2022/03/05 11:43:17;;;;;;;0.57;0.57;;;;;;;9.94;58.58;98927.09;4897084;29;20028;-76
2022/03/05 11:46:04;;;;;;;0.88;0.88;;;;;;;9.98;58.85;98932.69;4880491;29;20028;-77
2022/03/05 11:48:36;;;;;;;0.75;0.75;;;;;;;9.88;58.61;98920.19;4897917;29;20025;-76
2022/03/05 11:51:08;;;;;;;2.33;2.22;;;;;;;9.91;58.15;98923.09;4880232;29;20100;-78
2022/03/05 11:53:34;;;;;;;2.60;2.40;;;;;;;9.90;58.36;98915.38;4897224;29;20468;-77
2022/03/05 11:56:23;;;;;;;1.23;1.15;;;;;;;9.85;57.91;98912.72;4880087;29;20064;-78
2022/03/05 11:58:49;;;;;;;2.58;1.45;;;;;;;9.83;58.40;98909.53;4896875;29;20029;-78
2022/03/05 12:01:30;;;;;;;0.00;0.00;;;;;;;9.78;55.94;98916.47;4895829;29;20033;-78
2022/03/05 12:03:58;;;;;;;0.20;0.20;;;;;;;9.73;56.03;98910.38;4879400;29;20033;-78
2022/03/05 12:06:23;;;;;;;0.75;0.75;;;;;;;9.69;54.70;98911.97;4896448;29;20111;-78
2022/03/05 12:08:50;;;;;;;0.10;0.10;;;;;;;9.65;55.34;98911.72;4896480;29;20036;-78
2022/03/05 12:11:18;;;;;;;0.28;0.28;;;;;;;9.59;56.47;98912.81;4879186;29;20041;-76
2022/03/05 12:13:44;;;;;;;;;;;;;;;9.44;57.45;98903.00;4880059;29;20139;-78
2022/03/05 12:16:27;;;;;;;0.30;0.30;;;;;;;9.38;58.02;98907.53;4896377;29;20339;-77
2022/03/05 12:18:56;;;;;;;0.15;0.15;;;;;;;9.25;57.48;98913.44;4880079;29;20025;-78
2022/03/05 12:21:31;;;;;;;1.33;1.33;;;;;;;9.22;56.62;98908.66;4879084;29;20037;-78
2022/03/05 12:24:07;;;;;;;1.35;1.25;;;;;;;9.05;56.63;98903.63;4879952;29;20724;-78
2022/03/05 12:26:40;;;;;;;0.20;0.20;;;;;;;9.00;57.34;98908.97;4896846;29;20374;-78
2022/03/05 12:29:06;;;;;;;1.25;1.25;;;;;;;8.94;58.42;98910.81;4879792;29;20029;-78
2022/03/05 12:31:32;;;;;;;0.45;0.45;;;;;;;8.87;57.84;98902.28;4896555;29;20112;-78
2022/03/05 12:33:57;;;;;;;0.65;0.65;;;;;;;8.83;58.14;98902.03;4895943;29;20461;-78
2022/03/05 12:36:23;;;;;;;0.63;0.63;;;;;;;8.88;59.11;98909.22;4895816;29;20029;-78
2022/03/05 12:38:57;;;;;;;0.22;0.22;;;;;;;8.88;58.70;98906.56;4879234;29;20029;-78
2022/03/05 12:41:27;;;;;;;3.00;0.77;;;;;;;8.78;58.51;98902.81;4895546;29;20544;-78